createdAt,value
2019-03-28T00:00:24.924Z,8.41
2019-03-28T00:01:03.884Z,8.42
2019-03-28T00:02:03.847Z,8.37
2019-03-28T00:03:03.807Z,8.48
2019-03-28T00:04:03.772Z,8.46
2019-03-28T00:05:03.731Z,8.31
2019-03-28T00:06:24.701Z,8.46
2019-03-28T00:07:03.666Z,8.33
2019-03-28T00:08:03.636Z,8.44
2019-03-28T00:09:03.601Z,8.34
2019-03-28T00:10:03.566Z,8.45
2019-03-28T00:11:03.531Z,8.42
2019-03-28T00:12:24.488Z,8.49
2019-03-28T00:13:03.446Z,8.45
2019-03-28T00:14:03.413Z,8.48
2019-03-28T00:15:03.382Z,8.37
2019-03-28T00:16:03.366Z,8.34
2019-03-28T00:17:03.309Z,8.33
2019-03-28T00:18:24.263Z,8.46
2019-03-28T00:19:03.234Z,8.38
2019-03-28T00:20:03.202Z,8.37
2019-03-28T00:21:03.164Z,8.38
2019-03-28T00:22:05.539Z,8.30
2019-03-28T00:23:03.085Z,8.41
2019-03-28T00:24:24.059Z,8.28
2019-03-28T00:25:03.032Z,8.36
2019-03-28T00:26:03.279Z,8.37
2019-03-28T00:27:02.958Z,8.41
2019-03-28T00:28:02.937Z,8.27
2019-03-28T00:29:02.897Z,8.36
2019-03-28T00:30:23.847Z,8.26
2019-03-28T00:31:02.808Z,8.24
2019-03-28T00:32:02.780Z,8.31
2019-03-28T00:33:02.742Z,8.23
2019-03-28T00:34:02.719Z,8.26
2019-03-28T00:35:02.675Z,8.19
2019-03-28T00:36:23.630Z,8.19
2019-03-28T00:37:02.602Z,8.28
2019-03-28T00:38:02.565Z,8.26
2019-03-28T00:39:02.528Z,8.24
2019-03-28T00:40:02.482Z,8.26
2019-03-28T00:41:02.445Z,8.19
2019-03-28T00:42:23.414Z,8.18
2019-03-28T00:43:02.394Z,8.23
2019-03-28T00:44:02.339Z,8.26
2019-03-28T00:45:02.308Z,8.06
2019-03-28T00:46:02.276Z,8.16
2019-03-28T00:47:02.233Z,8.08
2019-03-28T00:48:23.195Z,8.05
2019-03-28T00:49:02.169Z,8.05
2019-03-28T00:50:02.135Z,8.08
2019-03-28T00:51:02.118Z,8.01
2019-03-28T00:52:02.064Z,7.95
2019-03-28T00:53:02.016Z,7.97
2019-03-28T00:54:22.984Z,7.87
2019-03-28T00:55:01.949Z,7.90
2019-03-28T00:56:02.311Z,7.93
2019-03-28T00:57:01.875Z,7.88
2019-03-28T00:58:01.835Z,7.83
2019-03-28T00:59:01.806Z,7.83
2019-03-28T01:00:22.761Z,7.88
2019-03-28T01:01:01.750Z,7.90
2019-03-28T01:02:01.700Z,7.87
2019-03-28T01:03:01.660Z,7.93
2019-03-28T01:04:02.266Z,7.91
2019-03-28T01:05:01.595Z,7.94
2019-03-28T01:06:22.546Z,7.93
2019-03-28T01:07:01.526Z,7.93
2019-03-28T01:08:01.489Z,7.90
2019-03-28T01:09:04.092Z,7.94
2019-03-28T01:10:01.406Z,7.88
2019-03-28T01:11:01.378Z,7.93
2019-03-28T01:12:22.329Z,7.94
2019-03-28T01:13:01.305Z,7.85
2019-03-28T01:14:01.270Z,7.88
2019-03-28T01:15:01.244Z,7.90
2019-03-28T01:16:01.192Z,7.83
2019-03-28T01:17:01.159Z,7.88
2019-03-28T01:18:22.119Z,7.87
2019-03-28T01:19:01.087Z,7.87
2019-03-28T01:20:01.050Z,7.88
2019-03-28T01:21:01.015Z,7.85
2019-03-28T01:22:00.987Z,7.87
2019-03-28T01:23:00.935Z,7.88
2019-03-28T01:24:21.907Z,7.87
2019-03-28T01:25:01.610Z,7.90
2019-03-28T01:26:00.837Z,7.90
2019-03-28T01:27:00.805Z,7.93
2019-03-28T01:28:00.768Z,7.90
2019-03-28T01:29:00.733Z,7.87
2019-03-28T01:30:22.209Z,7.91
2019-03-28T01:31:00.656Z,7.88
2019-03-28T01:32:00.631Z,7.93
2019-03-28T01:33:00.583Z,7.85
2019-03-28T01:34:00.558Z,7.91
2019-03-28T01:35:00.512Z,7.87
2019-03-28T01:36:21.473Z,7.88
2019-03-28T01:37:00.443Z,7.88
2019-03-28T01:38:00.394Z,7.87
2019-03-28T01:39:00.368Z,7.91
2019-03-28T01:40:00.816Z,7.97
2019-03-28T01:41:00.295Z,7.91
2019-03-28T01:42:21.257Z,7.85
2019-03-28T01:43:00.227Z,7.90
2019-03-28T01:44:00.203Z,7.93
2019-03-28T01:45:00.314Z,7.91
2019-03-28T01:46:00.121Z,7.93
2019-03-28T01:47:00.082Z,7.91
2019-03-28T01:48:21.059Z,7.88
2019-03-28T01:49:00.024Z,7.85
2019-03-28T01:49:59.994Z,7.88
2019-03-28T01:50:59.963Z,7.90
2019-03-28T01:51:59.914Z,7.87
2019-03-28T01:52:59.878Z,7.87
2019-03-28T01:54:20.838Z,7.90
2019-03-28T01:54:59.807Z,7.83
2019-03-28T01:55:59.796Z,7.75
2019-03-28T01:57:10.398Z,7.80
2019-03-28T01:57:59.709Z,7.75
2019-03-28T01:58:59.672Z,7.72
2019-03-28T02:00:20.637Z,7.76
2019-03-28T02:01:02.691Z,7.85
2019-03-28T02:01:59.559Z,7.82
2019-03-28T02:02:59.522Z,7.80
2019-03-28T02:03:59.494Z,7.85
2019-03-28T02:04:59.441Z,7.87
2019-03-28T02:06:20.424Z,7.82
2019-03-28T02:06:59.477Z,7.85
2019-03-28T02:08:02.504Z,7.85
2019-03-28T02:08:59.328Z,7.82
2019-03-28T02:09:59.269Z,7.77
2019-03-28T02:10:59.221Z,7.77
2019-03-28T02:12:20.210Z,7.82
2019-03-28T02:12:59.169Z,7.79
2019-03-28T02:13:59.150Z,7.83
2019-03-28T02:14:59.084Z,7.77
2019-03-28T02:15:59.064Z,7.76
2019-03-28T02:16:59.040Z,7.77
2019-03-28T02:18:19.983Z,7.93
2019-03-28T02:18:58.940Z,7.85
2019-03-28T02:19:58.910Z,7.82
2019-03-28T02:20:58.888Z,7.76
2019-03-28T02:21:58.844Z,7.76
2019-03-28T02:22:58.816Z,7.72
2019-03-28T02:24:19.770Z,7.69
2019-03-28T02:24:58.734Z,7.73
2019-03-28T02:25:58.723Z,7.85
2019-03-28T02:26:59.137Z,7.85
2019-03-28T02:27:58.625Z,7.87
2019-03-28T02:28:58.594Z,7.73
2019-03-28T02:30:19.557Z,7.80
2019-03-28T02:30:58.518Z,7.75
2019-03-28T02:31:58.500Z,7.77
2019-03-28T02:32:58.636Z,7.73
2019-03-28T02:33:58.406Z,7.69
2019-03-28T02:34:58.404Z,7.80
2019-03-28T02:36:19.326Z,7.76
2019-03-28T02:36:58.292Z,7.77
2019-03-28T02:37:58.261Z,7.73
2019-03-28T02:38:58.672Z,7.70
2019-03-28T02:39:58.215Z,7.67
2019-03-28T02:40:58.151Z,7.63
2019-03-28T02:42:19.143Z,7.70
2019-03-28T02:42:58.086Z,7.72
2019-03-28T02:43:58.062Z,7.70
2019-03-28T02:44:58.032Z,7.63
2019-03-28T02:45:57.997Z,7.66
2019-03-28T02:46:57.928Z,7.69
2019-03-28T02:48:18.912Z,7.67
2019-03-28T02:48:57.852Z,7.63
2019-03-28T02:49:57.842Z,7.60
2019-03-28T02:50:57.799Z,7.66
2019-03-28T02:51:57.772Z,7.72
2019-03-28T02:52:57.752Z,7.61
2019-03-28T02:54:18.715Z,7.60
2019-03-28T02:54:58.012Z,7.61
2019-03-28T02:55:57.628Z,7.69
2019-03-28T02:56:57.594Z,7.67
2019-03-28T02:57:57.546Z,7.66
2019-03-28T02:58:57.514Z,7.66
2019-03-28T03:00:18.463Z,7.70
2019-03-28T03:00:57.442Z,7.67
2019-03-28T03:01:57.383Z,7.72
2019-03-28T03:02:57.377Z,7.69
2019-03-28T03:03:57.323Z,7.75
2019-03-28T03:04:57.289Z,7.77
2019-03-28T03:06:18.262Z,7.77
2019-03-28T03:06:57.238Z,7.75
2019-03-28T03:07:57.199Z,7.77
2019-03-28T03:08:57.147Z,7.80
2019-03-28T03:09:57.131Z,7.75
2019-03-28T03:10:57.058Z,7.80
2019-03-28T03:12:18.054Z,7.83
2019-03-28T03:12:57.004Z,7.72
2019-03-28T03:13:56.971Z,7.75
2019-03-28T03:14:56.922Z,7.77
2019-03-28T03:15:57.211Z,7.76
2019-03-28T03:16:56.857Z,7.87
2019-03-28T03:18:21.282Z,7.87
2019-03-28T03:18:56.832Z,7.80
2019-03-28T03:19:56.744Z,7.87
2019-03-28T03:20:56.729Z,7.94
2019-03-28T03:21:56.673Z,7.90
2019-03-28T03:22:56.657Z,7.91
2019-03-28T03:24:17.605Z,7.87
2019-03-28T03:24:56.564Z,7.91
2019-03-28T03:25:56.536Z,7.83
2019-03-28T03:26:56.488Z,7.90
2019-03-28T03:27:58.953Z,7.93
2019-03-28T03:28:56.434Z,7.87
2019-03-28T03:30:17.400Z,7.90
2019-03-28T03:30:56.361Z,7.91
2019-03-28T03:31:56.339Z,7.94
2019-03-28T03:32:56.274Z,7.94
2019-03-28T03:33:56.255Z,7.90
2019-03-28T03:34:56.192Z,7.93
2019-03-28T03:36:17.199Z,7.87
2019-03-28T03:36:56.158Z,7.91
2019-03-28T03:37:56.239Z,7.93
2019-03-28T03:38:56.066Z,7.90
2019-03-28T03:39:56.015Z,7.93
2019-03-28T03:40:56.005Z,7.90
2019-03-28T03:42:16.949Z,7.93
2019-03-28T03:42:56.762Z,7.90
2019-03-28T03:43:55.890Z,7.85
2019-03-28T03:44:55.848Z,7.97
2019-03-28T03:45:55.811Z,7.95
2019-03-28T03:46:55.790Z,7.95
2019-03-28T03:48:16.737Z,7.97
2019-03-28T03:48:55.699Z,7.97
2019-03-28T03:49:56.426Z,7.95
2019-03-28T03:50:55.622Z,7.98
2019-03-28T03:51:55.615Z,8.03
2019-03-28T03:52:55.563Z,8.03
2019-03-28T03:54:16.538Z,7.98
2019-03-28T03:54:55.485Z,7.97
2019-03-28T03:55:55.496Z,8.03
2019-03-28T03:56:55.410Z,8.00
2019-03-28T03:57:55.395Z,7.98
2019-03-28T03:58:55.342Z,7.94
2019-03-28T04:00:16.320Z,7.98
2019-03-28T04:00:55.286Z,7.88
2019-03-28T04:01:55.261Z,7.95
2019-03-28T04:02:55.208Z,7.87
2019-03-28T04:03:55.864Z,7.93
2019-03-28T04:04:56.870Z,7.95
2019-03-28T04:06:16.091Z,7.98
2019-03-28T04:06:55.047Z,7.98
2019-03-28T04:07:55.020Z,7.94
2019-03-28T04:08:54.982Z,7.98
2019-03-28T04:09:54.938Z,7.98
2019-03-28T04:10:54.913Z,7.93
2019-03-28T04:12:15.895Z,7.97
2019-03-28T04:12:54.845Z,7.94
2019-03-28T04:13:54.805Z,7.93
2019-03-28T04:14:54.815Z,7.95
2019-03-28T04:15:54.751Z,7.94
2019-03-28T04:16:55.588Z,7.94
2019-03-28T04:18:15.661Z,8.00
2019-03-28T04:18:54.631Z,7.98
2019-03-28T04:19:54.601Z,7.97
2019-03-28T04:20:54.558Z,7.95
2019-03-28T04:21:54.513Z,8.00
2019-03-28T04:22:54.487Z,8.01
2019-03-28T04:24:15.469Z,7.95
2019-03-28T04:24:54.405Z,7.98
2019-03-28T04:25:54.421Z,8.00
2019-03-28T04:26:54.342Z,8.01
2019-03-28T04:27:54.336Z,7.97
2019-03-28T04:28:54.288Z,7.95
2019-03-28T04:30:15.259Z,8.01
2019-03-28T04:30:54.203Z,8.06
2019-03-28T04:31:54.152Z,7.98
2019-03-28T04:32:54.158Z,8.03
2019-03-28T04:33:54.091Z,7.98
2019-03-28T04:34:54.062Z,7.98
2019-03-28T04:36:15.024Z,7.97
2019-03-28T04:36:54.012Z,7.93
2019-03-28T04:37:53.971Z,7.88
2019-03-28T04:38:53.923Z,7.93
2019-03-28T04:39:53.864Z,7.87
2019-03-28T04:40:53.843Z,7.87
2019-03-28T04:42:14.822Z,7.85
2019-03-28T04:42:53.767Z,7.87
2019-03-28T04:43:55.806Z,7.93
2019-03-28T04:44:53.713Z,7.91
2019-03-28T04:45:53.666Z,7.91
2019-03-28T04:46:53.634Z,7.94
2019-03-28T04:48:14.609Z,7.95
2019-03-28T04:48:53.549Z,7.97
2019-03-28T04:49:53.517Z,8.00
2019-03-28T04:50:55.755Z,7.98
2019-03-28T04:51:53.572Z,7.97
2019-03-28T04:52:53.408Z,8.05
2019-03-28T04:54:14.388Z,7.95
2019-03-28T04:54:53.322Z,8.08
2019-03-28T04:55:53.307Z,8.06
2019-03-28T04:56:53.270Z,8.08
2019-03-28T04:57:53.220Z,8.03
2019-03-28T04:58:53.185Z,8.15
2019-03-28T05:00:14.138Z,8.06
2019-03-28T05:00:53.129Z,8.06
2019-03-28T05:02:02.541Z,8.03
2019-03-28T05:02:53.200Z,8.10
2019-03-28T05:03:53.015Z,8.12
2019-03-28T05:04:52.965Z,8.09
2019-03-28T05:06:13.934Z,8.18
2019-03-28T05:06:52.907Z,8.15
2019-03-28T05:07:52.868Z,8.23
2019-03-28T05:08:52.818Z,8.13
2019-03-28T05:09:52.791Z,8.18
2019-03-28T05:10:52.760Z,8.19
2019-03-28T05:12:13.715Z,8.20
2019-03-28T05:12:52.672Z,8.20
2019-03-28T05:13:52.648Z,8.24
2019-03-28T05:14:52.610Z,8.23
2019-03-28T05:15:52.578Z,8.27
2019-03-28T05:16:52.549Z,8.26
2019-03-28T05:18:13.493Z,8.30
2019-03-28T05:18:52.454Z,8.20
2019-03-28T05:19:52.444Z,8.33
2019-03-28T05:20:52.404Z,8.24
2019-03-28T05:21:52.375Z,8.23
2019-03-28T05:22:52.328Z,8.33
2019-03-28T05:24:13.284Z,8.30
2019-03-28T05:24:52.255Z,8.31
2019-03-28T05:25:52.217Z,8.30
2019-03-28T05:26:52.172Z,8.34
2019-03-28T05:27:52.141Z,8.37
2019-03-28T05:28:57.388Z,8.41
2019-03-28T05:30:13.071Z,8.41
2019-03-28T05:30:52.035Z,8.41
2019-03-28T05:31:52.006Z,8.36
2019-03-28T05:32:51.975Z,8.44
2019-03-28T05:33:51.931Z,8.42
2019-03-28T05:34:51.890Z,8.42
2019-03-28T05:36:12.855Z,8.38
2019-03-28T05:36:52.234Z,8.33
2019-03-28T05:37:51.781Z,8.44
2019-03-28T05:38:51.747Z,8.42
2019-03-28T05:39:51.727Z,8.49
2019-03-28T05:40:51.681Z,8.46
2019-03-28T05:42:12.678Z,8.42
2019-03-28T05:42:51.613Z,8.42
2019-03-28T05:43:51.573Z,8.36
2019-03-28T05:44:51.548Z,8.37
2019-03-28T05:45:51.507Z,8.44
2019-03-28T05:46:51.478Z,8.38
2019-03-28T05:48:12.423Z,8.41
2019-03-28T05:48:51.401Z,8.42
2019-03-28T05:49:51.362Z,8.37
2019-03-28T05:50:51.331Z,8.38
2019-03-28T05:51:51.288Z,8.37
2019-03-28T05:52:51.257Z,8.38
2019-03-28T05:54:12.223Z,8.44
2019-03-28T05:54:51.178Z,8.38
2019-03-28T05:55:51.148Z,8.42
2019-03-28T05:56:51.122Z,8.49
2019-03-28T05:57:51.067Z,8.44
2019-03-28T05:58:51.034Z,8.42
2019-03-28T06:00:12.008Z,8.46
2019-03-28T06:00:51.412Z,8.38
2019-03-28T06:01:50.939Z,8.42
2019-03-28T06:02:50.899Z,8.44
2019-03-28T06:03:50.853Z,8.45
2019-03-28T06:04:50.833Z,8.45
2019-03-28T06:06:11.788Z,8.41
2019-03-28T06:06:50.752Z,8.49
2019-03-28T06:07:50.712Z,8.42
2019-03-28T06:08:50.672Z,8.53
2019-03-28T06:09:50.632Z,8.55
2019-03-28T06:10:50.615Z,8.58
2019-03-28T06:12:11.585Z,8.58
2019-03-28T06:12:50.553Z,8.48
2019-03-28T06:13:50.499Z,8.58
2019-03-28T06:14:50.469Z,8.53
2019-03-28T06:15:50.423Z,8.49
2019-03-28T06:16:50.393Z,8.56
2019-03-28T06:18:11.373Z,8.52
2019-03-28T06:18:50.338Z,8.55
2019-03-28T06:19:50.299Z,8.52
2019-03-28T06:20:50.254Z,8.64
2019-03-28T06:21:50.219Z,8.70
2019-03-28T06:22:50.184Z,8.56
2019-03-28T06:24:11.150Z,8.67
2019-03-28T06:24:50.119Z,8.66
2019-03-28T06:25:50.088Z,8.71
2019-03-28T06:26:50.232Z,8.67
2019-03-28T06:27:50.004Z,8.67
2019-03-28T06:28:49.969Z,8.71
2019-03-28T06:30:10.935Z,8.67
2019-03-28T06:30:49.894Z,8.69
2019-03-28T06:31:55.153Z,8.67
2019-03-28T06:32:49.828Z,8.71
2019-03-28T06:33:49.811Z,8.70
2019-03-28T06:34:49.773Z,8.73
2019-03-28T06:36:10.714Z,8.70
2019-03-28T06:36:49.704Z,8.70
2019-03-28T06:37:51.413Z,8.64
2019-03-28T06:38:50.238Z,8.67
2019-03-28T06:39:49.579Z,8.70
2019-03-28T06:40:49.551Z,8.69
2019-03-28T06:42:10.498Z,8.67
2019-03-28T06:42:49.461Z,8.64
2019-03-28T06:43:49.441Z,8.69
2019-03-28T06:44:49.425Z,8.64
2019-03-28T06:45:49.374Z,8.69
2019-03-28T06:46:49.342Z,8.63
2019-03-28T06:48:10.347Z,8.63
2019-03-28T06:48:49.258Z,8.64
2019-03-28T06:49:49.224Z,8.67
2019-03-28T06:50:49.189Z,8.70
2019-03-28T06:51:49.146Z,8.67
2019-03-28T06:52:49.114Z,8.66
2019-03-28T06:54:10.074Z,8.63
2019-03-28T06:54:49.040Z,8.69
2019-03-28T06:55:49.025Z,8.70
2019-03-28T06:56:48.980Z,8.67
2019-03-28T06:57:48.931Z,8.71
2019-03-28T06:58:48.910Z,8.73
2019-03-28T07:00:09.865Z,8.64
2019-03-28T07:00:48.825Z,8.78
2019-03-28T07:01:48.798Z,8.66
2019-03-28T07:02:48.757Z,8.64
2019-03-28T07:03:48.721Z,8.67
2019-03-28T07:04:48.681Z,8.74
2019-03-28T07:06:09.651Z,8.67
2019-03-28T07:06:48.615Z,8.67
2019-03-28T07:07:48.586Z,8.64
2019-03-28T07:08:48.546Z,8.74
2019-03-28T07:09:48.510Z,8.69
2019-03-28T07:10:48.480Z,8.73
2019-03-28T07:12:09.442Z,8.76
2019-03-28T07:12:48.419Z,8.84
2019-03-28T07:13:48.365Z,8.85
2019-03-28T07:14:48.342Z,8.88
2019-03-28T07:15:48.301Z,8.87
2019-03-28T07:16:48.255Z,8.85
2019-03-28T07:18:09.227Z,8.92
2019-03-28T07:18:48.188Z,8.84
2019-03-28T07:19:48.161Z,8.94
2019-03-28T07:20:48.131Z,8.87
2019-03-28T07:21:48.086Z,8.91
2019-03-28T07:22:48.050Z,8.97
2019-03-28T07:24:09.056Z,8.97
2019-03-28T07:24:47.976Z,9.03
2019-03-28T07:25:47.961Z,9.03
2019-03-28T07:26:47.903Z,8.99
2019-03-28T07:27:47.873Z,8.99
2019-03-28T07:28:47.837Z,9.06
2019-03-28T07:30:08.808Z,9.08
2019-03-28T07:30:47.786Z,9.02
2019-03-28T07:31:47.731Z,9.04
2019-03-28T07:32:47.694Z,9.10
2019-03-28T07:33:47.666Z,9.21
2019-03-28T07:34:47.619Z,9.13
2019-03-28T07:36:08.593Z,9.18
2019-03-28T07:36:47.554Z,9.32
2019-03-28T07:37:47.526Z,9.25
2019-03-28T07:38:47.483Z,9.29
2019-03-28T07:39:47.471Z,9.31
2019-03-28T07:40:47.422Z,9.23
2019-03-28T07:42:08.381Z,9.31
2019-03-28T07:42:47.346Z,9.41
2019-03-28T07:43:47.309Z,9.47
2019-03-28T07:44:47.274Z,9.46
2019-03-28T07:45:47.250Z,9.44
2019-03-28T07:46:47.791Z,9.58
2019-03-28T07:48:08.162Z,9.55
2019-03-28T07:48:47.138Z,9.56
2019-03-28T07:49:47.101Z,9.64
2019-03-28T07:50:47.068Z,9.58
2019-03-28T07:51:47.032Z,9.59
2019-03-28T07:52:47.015Z,9.62
2019-03-28T07:54:07.953Z,9.61
2019-03-28T07:54:48.894Z,9.61
2019-03-28T07:55:46.897Z,9.66
2019-03-28T07:56:46.859Z,9.72
2019-03-28T07:57:46.822Z,9.66
2019-03-28T07:58:46.804Z,9.72
2019-03-28T08:00:07.743Z,9.74
2019-03-28T08:00:46.718Z,9.80
2019-03-28T08:01:46.683Z,9.83
2019-03-28T08:02:46.648Z,9.80
2019-03-28T08:03:46.609Z,9.83
2019-03-28T08:04:46.584Z,9.92
2019-03-28T08:06:07.547Z,9.97
2019-03-28T08:06:50.030Z,9.94
2019-03-28T08:07:47.155Z,9.87
2019-03-28T08:08:46.444Z,9.94
2019-03-28T08:09:46.418Z,9.92
2019-03-28T08:10:46.380Z,9.92
2019-03-28T08:12:21.418Z,9.95
2019-03-28T08:12:46.313Z,9.89
2019-03-28T08:13:46.260Z,9.92
2019-03-28T08:14:46.243Z,9.99
2019-03-28T08:15:46.205Z,10.05
2019-03-28T08:16:46.170Z,10.10
2019-03-28T08:18:07.111Z,10.17
2019-03-28T08:18:46.090Z,10.13
2019-03-28T08:19:46.061Z,10.10
2019-03-28T08:20:46.025Z,10.13
2019-03-28T08:21:46.005Z,10.22
2019-03-28T08:22:45.960Z,10.23
2019-03-28T08:24:06.921Z,10.19
2019-03-28T08:24:46.346Z,10.23
2019-03-28T08:25:45.840Z,10.22
2019-03-28T08:26:45.823Z,10.26
2019-03-28T08:27:45.791Z,10.33
2019-03-28T08:28:45.754Z,10.40
2019-03-28T08:30:17.558Z,10.25
2019-03-28T08:30:45.676Z,10.31
2019-03-28T08:31:45.647Z,10.22
2019-03-28T08:32:45.615Z,10.28
2019-03-28T08:33:45.570Z,10.26
2019-03-28T08:34:45.537Z,10.25
2019-03-28T08:36:06.495Z,10.26
2019-03-28T08:36:45.477Z,10.19
2019-03-28T08:37:45.459Z,10.31
2019-03-28T08:38:45.405Z,10.37
2019-03-28T08:39:45.384Z,10.35
2019-03-28T08:40:45.344Z,10.31
2019-03-28T08:42:06.305Z,10.35
2019-03-28T08:42:45.274Z,10.34
2019-03-28T08:43:45.247Z,10.38
2019-03-28T08:44:45.197Z,10.40
2019-03-28T08:45:45.157Z,10.42
2019-03-28T08:46:45.130Z,10.56
2019-03-28T08:48:06.093Z,10.64
2019-03-28T08:48:45.066Z,10.59
2019-03-28T08:49:45.028Z,10.69
2019-03-28T08:50:45.001Z,10.72
2019-03-28T08:51:44.958Z,10.74
2019-03-28T08:52:44.928Z,10.69
2019-03-28T08:54:05.887Z,10.76
2019-03-28T08:54:44.856Z,10.79
2019-03-28T08:55:44.837Z,10.78
2019-03-28T08:56:44.796Z,10.72
2019-03-28T08:57:44.761Z,10.76
2019-03-28T08:58:44.727Z,10.81
2019-03-28T09:00:05.684Z,10.82
2019-03-28T09:00:52.157Z,10.96
2019-03-28T09:01:44.621Z,10.99
2019-03-28T09:02:44.583Z,11.10
2019-03-28T09:03:44.554Z,11.14
2019-03-28T09:04:44.524Z,11.14
2019-03-28T09:06:05.485Z,11.19
2019-03-28T09:06:44.452Z,11.05
2019-03-28T09:07:44.427Z,11.02
2019-03-28T09:08:44.384Z,11.00
2019-03-28T09:09:44.358Z,11.11
2019-03-28T09:10:44.332Z,11.12
2019-03-28T09:12:05.280Z,11.19
2019-03-28T09:12:44.249Z,11.22
2019-03-28T09:13:44.217Z,11.22
2019-03-28T09:14:44.184Z,11.40
2019-03-28T09:15:44.336Z,11.43
2019-03-28T09:16:44.112Z,11.32
2019-03-28T09:18:05.094Z,11.37
2019-03-28T09:18:44.050Z,11.48
2019-03-28T09:19:44.022Z,11.37
2019-03-28T09:20:43.989Z,11.48
2019-03-28T09:21:43.952Z,11.48
2019-03-28T09:22:43.941Z,11.60
2019-03-28T09:24:04.883Z,11.66
2019-03-28T09:24:43.845Z,11.62
2019-03-28T09:25:43.812Z,11.60
2019-03-28T09:26:43.782Z,11.59
2019-03-28T09:27:43.825Z,11.48
2019-03-28T09:28:43.734Z,11.41
2019-03-28T09:30:04.675Z,11.50
2019-03-28T09:30:48.886Z,11.66
2019-03-28T09:31:43.613Z,11.60
2019-03-28T09:32:43.582Z,11.69
2019-03-28T09:33:43.543Z,11.50
2019-03-28T09:34:43.513Z,11.55
2019-03-28T09:36:04.476Z,11.63
2019-03-28T09:36:43.459Z,11.59
2019-03-28T09:37:43.415Z,11.72
2019-03-28T09:38:43.378Z,11.72
2019-03-28T09:39:43.355Z,11.73
2019-03-28T09:40:43.330Z,11.66
2019-03-28T09:42:04.273Z,11.50
2019-03-28T09:42:43.253Z,11.55
2019-03-28T09:43:54.654Z,11.45
2019-03-28T09:44:43.198Z,11.62
2019-03-28T09:45:43.146Z,11.50
2019-03-28T09:46:43.109Z,11.63
2019-03-28T09:48:04.070Z,11.68
2019-03-28T09:48:43.049Z,11.80
2019-03-28T09:49:43.009Z,11.69
2019-03-28T09:50:42.981Z,11.81
2019-03-28T09:51:42.950Z,11.77
2019-03-28T09:52:42.918Z,11.81
2019-03-28T09:54:03.874Z,11.66
2019-03-28T09:54:42.851Z,11.84
2019-03-28T09:55:42.807Z,11.78
2019-03-28T09:56:42.787Z,11.80
2019-03-28T09:57:42.745Z,11.95
2019-03-28T09:58:42.705Z,11.94
2019-03-28T10:00:03.670Z,11.99
2019-03-28T10:00:42.646Z,11.88
2019-03-28T10:01:42.620Z,11.88
2019-03-28T10:02:44.055Z,11.97
2019-03-28T10:03:42.556Z,11.95
2019-03-28T10:04:42.507Z,12.13
2019-03-28T10:06:03.476Z,12.21
2019-03-28T10:06:42.449Z,12.20
2019-03-28T10:07:42.422Z,12.24
2019-03-28T10:08:42.397Z,12.28
2019-03-28T10:09:42.544Z,12.35
2019-03-28T10:10:42.331Z,12.37
2019-03-28T10:12:03.276Z,12.46
2019-03-28T10:12:44.097Z,12.54
2019-03-28T10:13:42.226Z,12.67
2019-03-28T10:14:42.185Z,12.64
2019-03-28T10:15:42.159Z,12.60
2019-03-28T10:16:42.118Z,12.64
2019-03-28T10:18:03.081Z,12.73
2019-03-28T10:18:42.061Z,12.85
2019-03-28T10:19:42.031Z,12.87
2019-03-28T10:20:41.992Z,12.91
2019-03-28T10:21:41.957Z,12.97
2019-03-28T10:22:41.924Z,12.98
2019-03-28T10:24:02.888Z,13.12
2019-03-28T10:24:41.861Z,13.15
2019-03-28T10:25:41.829Z,12.94
2019-03-28T10:26:41.814Z,12.95
2019-03-28T10:27:41.756Z,12.76
2019-03-28T10:28:41.728Z,12.78
2019-03-28T10:30:02.704Z,12.90
2019-03-28T10:30:41.681Z,12.97
2019-03-28T10:31:41.641Z,13.01
2019-03-28T10:32:41.603Z,13.03
2019-03-28T10:33:41.568Z,12.87
2019-03-28T10:34:41.526Z,12.73
2019-03-28T10:36:02.503Z,12.64
2019-03-28T10:36:41.468Z,12.78
2019-03-28T10:37:41.441Z,12.91
2019-03-28T10:38:41.401Z,12.94
2019-03-28T10:39:41.389Z,12.93
2019-03-28T10:40:41.337Z,13.05
2019-03-28T10:42:02.309Z,12.94
2019-03-28T10:42:41.341Z,12.95
2019-03-28T10:43:41.239Z,12.94
2019-03-28T10:44:41.213Z,12.87
2019-03-28T10:45:41.176Z,12.83
2019-03-28T10:46:41.149Z,12.94
2019-03-28T10:48:02.133Z,12.97
2019-03-28T10:48:41.078Z,12.87
2019-03-28T10:49:41.575Z,12.95
2019-03-28T10:50:45.356Z,12.95
2019-03-28T10:51:41.008Z,13.05
2019-03-28T10:52:40.944Z,13.11
2019-03-28T10:54:01.914Z,13.00
2019-03-28T10:54:40.874Z,13.09
2019-03-28T10:55:40.849Z,13.15
2019-03-28T10:56:51.036Z,13.16
2019-03-28T10:57:40.813Z,13.25
2019-03-28T10:58:40.753Z,13.31
2019-03-28T11:00:01.723Z,13.33
2019-03-28T11:00:40.691Z,13.41
2019-03-28T11:01:49.162Z,13.44
2019-03-28T11:02:40.626Z,13.50
2019-03-28T11:03:40.603Z,13.47
2019-03-28T11:04:40.561Z,13.47
2019-03-28T11:06:01.534Z,13.47
2019-03-28T11:06:40.489Z,13.62
2019-03-28T11:07:40.469Z,13.63
2019-03-28T11:08:40.436Z,13.57
2019-03-28T11:09:40.400Z,13.30
2019-03-28T11:10:40.385Z,13.22
2019-03-28T11:12:02.115Z,13.30
2019-03-28T11:12:40.300Z,13.20
2019-03-28T11:13:40.279Z,13.44
2019-03-28T11:14:40.235Z,13.47
2019-03-28T11:15:40.229Z,13.38
2019-03-28T11:16:40.179Z,13.41
2019-03-28T11:18:01.144Z,13.31
2019-03-28T11:18:40.112Z,13.56
2019-03-28T11:19:40.090Z,13.59
2019-03-28T11:20:40.320Z,13.59
2019-03-28T11:21:40.030Z,13.75
2019-03-28T11:22:40.004Z,13.77
2019-03-28T11:24:00.958Z,14.05
2019-03-28T11:24:39.934Z,14.10
2019-03-28T11:25:39.902Z,14.20
2019-03-28T11:26:39.873Z,14.25
2019-03-28T11:27:39.834Z,14.54
2019-03-28T11:28:39.812Z,14.50
2019-03-28T11:30:00.772Z,14.58
2019-03-28T11:30:39.746Z,14.68
2019-03-28T11:31:46.313Z,14.68
2019-03-28T11:32:39.687Z,14.68
2019-03-28T11:33:39.666Z,14.54
2019-03-28T11:34:39.636Z,14.40
2019-03-28T11:36:00.577Z,14.60
2019-03-28T11:36:39.562Z,14.82
2019-03-28T11:37:39.530Z,15.00
2019-03-28T11:38:39.503Z,15.09
2019-03-28T11:39:39.466Z,15.35
2019-03-28T11:40:42.721Z,15.07
2019-03-28T11:42:00.586Z,14.85
2019-03-28T11:42:39.374Z,15.07
2019-03-28T11:43:39.364Z,15.19
2019-03-28T11:44:39.330Z,15.29
2019-03-28T11:45:39.277Z,15.28
2019-03-28T11:46:39.247Z,15.37
2019-03-28T11:48:00.203Z,15.27
2019-03-28T11:48:39.203Z,14.81
2019-03-28T11:49:39.161Z,14.55
2019-03-28T11:50:39.131Z,14.58
2019-03-28T11:51:39.097Z,14.59
2019-03-28T11:52:42.421Z,14.35
2019-03-28T11:54:00.046Z,14.45
2019-03-28T11:54:39.008Z,14.63
2019-03-28T11:55:38.993Z,14.69
2019-03-28T11:56:38.957Z,14.79
2019-03-28T11:57:38.924Z,14.88
2019-03-28T11:58:38.956Z,15.10
2019-03-28T12:00:00.788Z,15.36
2019-03-28T12:00:38.836Z,15.75
2019-03-28T12:01:38.821Z,16.17
2019-03-28T12:02:38.778Z,16.00
2019-03-28T12:03:38.748Z,15.91
2019-03-28T12:04:38.917Z,16.12
2019-03-28T12:05:59.673Z,16.23
2019-03-28T12:06:38.653Z,16.29
2019-03-28T12:07:38.680Z,16.09
2019-03-28T12:08:38.593Z,16.17
2019-03-28T12:09:38.567Z,15.95
2019-03-28T12:10:38.878Z,15.88
2019-03-28T12:11:59.518Z,15.98
2019-03-28T12:12:38.488Z,16.15
2019-03-28T12:13:44.835Z,16.29
2019-03-28T12:14:38.432Z,16.39
2019-03-28T12:15:38.393Z,16.51
2019-03-28T12:16:38.376Z,16.72
2019-03-28T12:17:59.339Z,16.54
2019-03-28T12:18:38.312Z,16.46
2019-03-28T12:19:38.277Z,16.29
2019-03-28T12:20:38.271Z,15.97
2019-03-28T12:21:38.316Z,15.83
2019-03-28T12:22:38.200Z,15.95
2019-03-28T12:23:59.168Z,15.95
2019-03-28T12:24:38.135Z,15.84
2019-03-28T12:25:38.120Z,15.84
2019-03-28T12:26:38.094Z,15.76
2019-03-28T12:27:38.046Z,15.98
2019-03-28T12:28:38.031Z,16.21
2019-03-28T12:29:59.010Z,16.17
2019-03-28T12:30:37.984Z,16.09
2019-03-28T12:31:37.943Z,16.32
2019-03-28T12:32:37.917Z,16.36
2019-03-28T12:33:37.894Z,16.43
2019-03-28T12:34:37.853Z,16.05
2019-03-28T12:35:58.823Z,16.24
2019-03-28T12:36:37.807Z,16.00
2019-03-28T12:37:37.769Z,15.84
2019-03-28T12:38:37.741Z,15.84
2019-03-28T12:39:37.713Z,15.95
2019-03-28T12:40:37.674Z,16.00
2019-03-28T12:41:58.645Z,15.65
2019-03-28T12:42:37.634Z,15.79
2019-03-28T12:43:37.594Z,15.75
2019-03-28T12:44:37.574Z,15.52
2019-03-28T12:45:37.532Z,15.67
2019-03-28T12:46:37.500Z,15.18
2019-03-28T12:47:58.490Z,15.31
2019-03-28T12:48:37.452Z,15.47
2019-03-28T12:49:37.409Z,15.67
2019-03-28T12:50:37.438Z,15.33
2019-03-28T12:51:37.366Z,15.00
2019-03-28T12:52:37.330Z,15.14
2019-03-28T12:53:58.319Z,15.15
2019-03-28T12:54:37.272Z,15.42
2019-03-28T12:55:37.241Z,15.62
2019-03-28T12:56:37.212Z,15.86
2019-03-28T12:57:37.180Z,15.90
2019-03-28T12:58:37.635Z,16.05
2019-03-28T12:59:58.121Z,16.15
2019-03-28T13:00:37.098Z,15.88
2019-03-28T13:01:37.054Z,15.76
2019-03-28T13:02:37.045Z,15.44
2019-03-28T13:03:45.509Z,15.59
2019-03-28T13:04:36.970Z,15.65
2019-03-28T13:05:57.932Z,15.84
2019-03-28T13:06:36.912Z,15.92
2019-03-28T13:07:36.877Z,16.02